Flight Track Log - Related Links

Times and Time Zones

All times are in EDT time to prevent confusion due to time zone crossing. See the EJA831 flight status page for this flight to view local times or setup timezone preferences in your user account.

Time Position Orientation Groundspeed Altitude Reporting Facility
EDT Latitude Longitude Course Direction KTS MPH feet Rate Location/Type
Mon 05:19:13 PM 37.7500 -122.2833 288° West 196 226 2,000  Level Northern Cal TRACON
Mon 05:20:13 PM 37.7667 -122.3500 288° West 203 234 3,100 2,000 Climbing Northern Cal TRACON
Mon 05:21:13 PM 37.7167 -122.4000 218° Southwest 222 255 6,000 3,400 Climbing Northern Cal TRACON
Mon 05:22:13 PM 37.6667 -122.4167 195° South 233 268 9,900 2,740 Climbing Northern Cal TRACON
Mon 05:23:20 PM 37.5883 -122.4014 171° South 277 319 11,800 2,558 Climbing Oakland Center
Mon 05:24:22 PM 37.5103 -122.3239 142° Southeast 324 373 15,400 2,878 Climbing Oakland Center
Mon 05:25:23 PM 37.4836 -122.2117 107° East 334 384 17,700 2,016 Climbing Oakland Center
Mon 05:26:24 PM 37.4544 -122.0894 107° East 360 414 19,500 1,820 Climbing Oakland Center
Mon 05:27:25 PM 37.4242 -121.9650 107° East 371 427 21,400 1,854 Climbing Oakland Center
Mon 05:28:27 PM 37.3933 -121.8378 107° East 379 436 23,300 1,854 Climbing Oakland Center
Mon 05:29:28 PM 37.3633 -121.7108 107° East 382 440 25,200 1,918 Climbing Oakland Center
Mon 05:30:29 PM 37.3311 -121.5783 107° East 377 434 27,200 1,967 Climbing Oakland Center
Mon 05:31:30 PM 37.3000 -121.4542 107° East 375 432 29,200 1,475 Climbing Oakland Center
Mon 05:32:31 PM 37.2686 -121.3264 107° East 382 440 30,200 878 Climbing Oakland Center
Mon 05:33:33 PM 37.2350 -121.1942 108° East 396 456 31,000 390 Climbing Oakland Center
Mon 05:34:34 PM 37.1997 -121.0497 107° East 426 490 31,000  Level Oakland Center
Mon 05:35:35 PM 37.1556 -120.8706 107° East 447 514 31,000  Level Oakland Center
Mon 05:36:37 PM 37.1558 -120.7164 90° East 445 512 31,000  Level Oakland Center
Mon 05:37:38 PM 37.1694 -120.5608 84° East 449 517 31,000  Level Oakland Center
Mon 05:38:39 PM 37.1839 -120.4061 83° East 449 517 31,000  Level Oakland Center
Mon 05:39:40 PM 37.1983 -120.2511 83° East 449 517 31,000  Level Oakland Center
Mon 05:40:42 PM 37.1875 -120.0967 95° East 447 514 31,000  Level Oakland Center
Mon 05:41:43 PM 37.1733 -119.9417 96° East 448 516 31,000  Level Oakland Center
Mon 05:42:44 PM 37.1556 -119.7672 97° East 449 517 31,000  Level Oakland Center
Mon 05:43:46 PM 37.1392 -119.6139 98° East 446 513 31,000  Level Oakland Center
Mon 05:44:47 PM 37.1225 -119.4572 98° East 450 518 31,000  Level Oakland Center
Mon 05:46:49 PM 37.0892 -119.1494 98° East 448 516 31,000  Level Oakland Center
Mon 05:47:51 PM 37.0714 -118.9950 98° East 448 516 31,000  Level Oakland Center
Mon 05:48:52 PM 37.0547 -118.8406 98° East 448 516 31,000  Level Oakland Center
Mon 05:49:53 PM 37.0383 -118.6878 98° East 446 513 31,000  Level Oakland Center
Mon 05:50:55 PM 37.0211 -118.5336 98° East 446 513 31,000  Level Oakland Center
Mon 05:51:56 PM 37.0011 -118.3678 99° East 450 518 31,000  Level Oakland Center
Mon 05:52:57 PM 36.9833 -118.2131 98° East 450 518 31,000  Level Oakland Center
Mon 05:53:59 PM 36.9594 -118.0242 99° East 458 527 31,000  Level Oakland Center
Mon 05:55:00 PM 36.9425 -117.8786 98° East 434 499 31,000  Level Oakland Center
Mon 05:56:01 PM 36.9250 -117.7386 99° East 415 478 31,000  Level Oakland Center
Mon 05:57:03 PM 36.9086 -117.5989 98° East 410 472 31,000  Level Oakland Center
Mon 05:58:04 PM 36.8911 -117.4619 99° East 403 464 31,000  Level Oakland Center
Mon 05:59:05 PM 36.8736 -117.3197 99° East 411 473 31,000  Level Oakland Center
Mon 06:00:07 PM 36.8547 -117.1722 99° East 423 487 31,000 -48 Level Oakland Center
Mon 06:01:09 PM 36.8364 -117.0258 99° East 427 491 30,900 -585 Descending Oakland Center
Mon 06:02:10 PM 36.8167 -116.8758 99° East 435 501 29,800 -1,121 Descending Oakland Center
Mon 06:02:40 PM 36.8019 -116.7864 102° East 437 503 29,200 -527 Descending Los Angeles Center
Mon 06:03:41 PM 36.7394 -116.6581 121° Southeast 433 498 29,000 -98 Descending Los Angeles Center
Mon 06:04:43 PM 36.6756 -116.5700 132° Southeast 431 496 29,000 -1,016 Level Los Angeles Center
Mon 06:05:45 PM 36.5786 -116.4311 131° Southeast 441 507 26,900 -2,177 Descending Los Angeles Center
Mon 06:06:47 PM 36.4981 -116.3153 131° Southeast 427 491 24,500 -2,323 Descending Los Angeles Center
Mon 06:07:49 PM 36.4094 -116.1903 131° Southeast 424 488 22,100 -2,376 Descending Los Angeles Center
Mon 06:08:28 PM 36.3558 -116.1183 133° Southeast 420 483 20,500 -2,129 Descending Los Angeles Center
Mon 06:08:51 PM 36.3325 -116.0844 131° Southeast 415 478 19,900 -1,976 Descending Los Angeles Center
Mon 06:09:53 PM 36.2628 -115.9847 131° Southeast 360 414 17,700 -1,935 Descending Los Angeles Center
Mon 06:10:55 PM 36.1994 -115.8931 131° Southeast 353 406 15,900 -1,448 Descending Los Angeles Center
Mon 06:11:49 PM 36.1658 -115.7881 112° Southeast 345 397 14,900 -1,082 Descending Los Angeles Center
Mon 06:11:56 PM 36.1597 -115.7736 118° Southeast 348 400 14,800 -957 Descending Los Angeles Center
Mon 06:12:58 PM 36.1253 -115.6678 112° Southeast 332 382 13,800 -960 Descending Los Angeles Center
Mon 06:14:00 PM 36.0676 -115.5294 111° Southeast  Level FlightAware Approximate
Mon 06:14:51 PM 36.0661 -115.4825 111° Southeast 300 345 12,000  Level Los Angeles Center
Mon 06:15:02 PM 36.0664 -115.4833 292° West 297 342 12,000 -885 Level Los Angeles Center
Mon 06:15:52 PM 36.0347 -115.3864 112° Southeast 305 351 11,100 -1,065 Descending Los Angeles Center
Mon 06:16:04 PM 36.0300 -115.3664 106° East 304 350 10,900 -1,135 Descending Los Angeles Center
Mon 06:17:06 PM 36.0231 -115.2647 95° East 303 349 9,700 -1,113 Descending Los Angeles Center
Mon 06:18:08 PM 36.0156 -115.1675 95° East 291 335 8,600 -944 Descending Los Angeles Center
Mon 06:18:54 PM 36.0128 -115.0961 93° East 231 266 8,000 -581 Descending Los Angeles Center
Mon 06:19:10 PM 36.0114 -115.0839 98° East 258 297 8,000 -590 Level Los Angeles Center
Mon 06:19:55 PM 36.0572 -115.0519 29° Northeast 237 273 7,400 -774 Descending Los Angeles Center
Mon 06:20:12 PM 36.0672 -115.0494 11° North 246 283 7,200 -1,279 Descending Los Angeles Center
Mon 06:20:56 PM 36.1250 -115.0456 North 219 252 6,100 -1,258 Descending Los Angeles Center
Mon 06:21:14 PM 36.1311 -115.0447 North 236 272 5,900 -1,612 Descending Los Angeles Center
Mon 06:22:03 PM 36.1564 -115.0911 304° West 181 208 4,300 -1,935 Descending Los Angeles Center
Mon 06:22:16 PM 36.1533 -115.0975 239° Southwest 190 219 3,900 -1,377 Descending Los Angeles Center
Mon 06:23:04 PM 36.1292 -115.1347 231° Southwest 153 176 2,900 -1,161 Descending Los Angeles Center
Mon 06:23:18 PM 36.1244 -115.1386 214° Southwest 168 193 2,700 -632 Descending Los Angeles Center
Mon 06:24:20 PM 36.0878 -115.1567 202° Southwest 148 170 2,100 -581 Descending Los Angeles Center
Mon 06:26:00 PM 35.9924 -114.9512 95° East  Level FlightAware Approximate
Mon 06:33:00 PM 36.0781 -115.1186 282° West  Level FlightAware Approximate
Mon 06:34:00 PM 36.0667 -115.1500 180° South  Level FlightAware Approximate
Mon 06:35:00 PM 36.1006 -115.2860 180° South  Level Estimated
Mon 06:36:00 PM 36.0667 -115.1500 180° South  Level FlightAware Approximate
Mon 06:37:00 PM 36.1006 -115.2860 180° South  Level Estimated
Mon 06:38:00 PM 36.0667 -115.1500 180° South  Level FlightAware Approximate
Mon 06:39:00 PM 36.1006 -115.2860 180° South  Level Estimated
Mon 06:40:00 PM 36.0667 -115.1500 180° South  Level FlightAware Approximate

Login

Don't have an account? Register now (free) for customized features, flight alerts, and more!